Time;durP1;ratioP1;P1;durP2;ratioP2;P2;SDS_P1;SDS_P2;PMS_P1;PMS_P2;Temp;Humidity;BMP_temperature;BMP_pressure;BME280_temperature;BME280_humidity;BME280_pressure;Samples;Min_cycle;Max_cycle;Signal;HPM_P1;HPM_P2
2023/01/04 00:06:24;;;;;;;84.85;14.90;;;;;;;22.68;47.94;100891.13;21072591;28;20044;-60
2023/01/04 00:16:28;;;;;;;79.72;14.88;;;;;;;22.72;47.86;100880.19;21055230;27;20041;-61
2023/01/04 00:26:31;;;;;;;44.20;12.60;;;;;;;22.45;46.98;100836.13;21011519;28;20400;-60
2023/01/04 00:36:35;;;;;;;52.17;11.85;;;;;;;22.69;47.23;100881.63;21000827;28;20078;-59
2023/01/04 00:46:37;;;;;;;47.90;11.73;;;;;;;22.61;47.15;100890.63;20999546;28;20033;-59
2023/01/04 00:56:38;;;;;;;40.40;12.80;;;;;;;22.67;47.52;100906.19;21034917;28;20051;-61
2023/01/04 01:06:40;;;;;;;34.03;10.00;;;;;;;22.65;47.33;100877.75;21082645;28;20543;-61
2023/01/04 01:16:42;;;;;;;31.25;9.98;;;;;;;22.65;47.46;100879.72;21067811;28;20478;-61
2023/01/04 01:26:46;;;;;;;29.02;10.10;;;;;;;22.44;46.95;100834.47;21080776;28;20552;-61
2023/01/04 01:36:48;;;;;;;24.67;9.05;;;;;;;22.63;47.38;100865.22;21067550;28;20483;-61
2023/01/04 01:46:52;;;;;;;24.98;9.55;;;;;;;22.60;46.97;100852.72;21079186;28;20048;-60
2023/01/04 01:56:57;;;;;;;24.80;9.13;;;;;;;22.59;46.95;100859.44;21042150;28;20474;-63
2023/01/04 02:07:01;;;;;;;26.45;7.68;;;;;;;22.56;47.12;100862.78;21077577;28;20044;-60
2023/01/04 02:17:20;;;;;;;27.85;8.50;;;;;;;22.50;46.68;100845.28;21062771;28;20036;-61
2023/01/04 02:27:40;;;;;;;18.27;7.78;;;;;;;22.52;46.77;100837.44;21069548;28;20048;-61
2023/01/04 02:37:55;;;;;;;13.95;7.28;;;;;;;22.48;46.33;100852.28;21061941;28;20416;-61
2023/01/04 02:58:42;;;;;;;15.20;7.32;;;;;;;22.42;46.01;100845.09;21020206;28;20033;-61
2023/01/04 03:08:49;;;;;;;16.40;7.75;;;;;;;22.42;46.16;100820.81;21074707;28;20043;-62
2023/01/04 03:18:53;;;;;;;17.27;7.07;;;;;;;22.41;45.96;100809.97;21068578;28;20487;-62
2023/01/04 03:49:58;;;;;;;11.47;7.17;;;;;;;22.35;45.61;100749.78;21071321;28;20483;-61
2023/01/04 04:00:09;;;;;;;12.07;6.70;;;;;;;22.32;45.65;100765.19;21075542;28;20067;-62
2023/01/04 04:10:10;;;;;;;16.67;6.78;;;;;;;22.35;45.77;100747.84;21063785;28;20052;-63
2023/01/04 04:20:12;;;;;;;11.60;7.15;;;;;;;22.32;45.42;100726.16;21084973;28;20051;-62
2023/01/04 04:30:13;;;;;;;12.85;7.40;;;;;;;22.30;45.71;100726.41;21085048;28;20044;-61
2023/01/04 04:50:34;;;;;;;14.82;7.22;;;;;;;22.26;45.82;100761.59;21058578;28;20052;-62
2023/01/04 05:00:40;;;;;;;14.75;7.72;;;;;;;22.23;45.51;100755.78;21076213;28;20048;-62
2023/01/04 05:10:41;;;;;;;11.82;7.60;;;;;;;22.25;45.52;100798.94;21034831;28;20058;-62
2023/01/04 05:20:43;;;;;;;13.05;7.47;;;;;;;22.21;45.53;100792.28;21079767;28;20074;-63
2023/01/04 05:30:50;;;;;;;16.17;7.88;;;;;;;22.25;45.47;100764.69;21067192;28;20032;-63
2023/01/04 05:40:53;;;;;;;17.67;8.80;;;;;;;22.25;45.36;100779.44;21078098;28;20095;-64
2023/01/04 05:50:54;;;;;;;14.38;9.70;;;;;;;22.24;45.10;100786.16;21065054;28;20040;-63
2023/01/04 06:00:58;;;;;;;16.73;10.30;;;;;;;22.24;44.93;100797.28;21072123;28;20101;-62
2023/01/04 06:11:00;;;;;;;15.88;8.50;;;;;;;22.25;45.50;100810.09;21071410;28;20040;-63
2023/01/04 06:21:01;;;;;;;16.63;9.77;;;;;;;22.27;45.17;100824.59;21070097;28;20055;-63
2023/01/04 06:31:07;;;;;;;14.35;9.30;;;;;;;22.20;44.71;100812.94;21075478;28;20043;-63
2023/01/04 06:41:11;;;;;;;15.63;9.20;;;;;;;22.23;44.96;100823.50;21060166;28;20043;-63
2023/01/04 06:51:15;;;;;;;14.77;8.60;;;;;;;22.23;45.06;100839.41;21073715;28;20074;-63
2023/01/04 07:01:16;;;;;;;11.98;9.25;;;;;;;22.18;44.96;100862.59;21058058;28;20044;-63
2023/01/04 07:11:18;;;;;;;15.75;9.68;;;;;;;22.20;44.76;100884.56;21074991;28;20036;-62
2023/01/04 07:21:24;;;;;;;10.95;8.32;;;;;;;22.23;45.10;100900.72;21056171;28;20414;-63
2023/01/04 07:31:28;;;;;;;12.32;8.93;;;;;;;22.13;44.25;100884.94;21083010;28;20418;-63
2023/01/04 07:41:30;;;;;;;12.40;8.63;;;;;;;22.21;44.42;100906.56;21075508;28;20125;-64
2023/01/04 07:51:32;;;;;;;10.55;8.45;;;;;;;22.13;44.30;100904.44;21089118;28;20074;-63
2023/01/04 08:01:37;;;;;;;14.98;8.20;;;;;;;22.19;44.09;100911.63;21088655;28;20040;-63
2023/01/04 08:11:39;;;;;;;10.88;8.52;;;;;;;22.20;44.45;100909.66;21087168;28;20059;-63
2023/01/04 08:21:41;;;;;;;9.30;8.20;;;;;;;22.07;44.67;100908.31;21072931;28;20047;-63
2023/01/04 08:31:45;;;;;;;9.35;8.00;;;;;;;22.19;44.42;100910.78;21086279;28;20104;-63
2023/01/04 08:41:50;;;;;;;10.18;8.10;;;;;;;22.14;44.36;100906.09;21079053;28;20040;-62
2023/01/04 08:51:51;;;;;;;10.15;7.82;;;;;;;22.17;44.67;100943.69;21084896;28;20557;-63
2023/01/04 09:01:52;;;;;;;9.50;8.00;;;;;;;22.16;44.59;100939.22;21070252;28;20040;-63
2023/01/04 09:11:58;;;;;;;10.00;7.80;;;;;;;22.05;44.29;100927.31;21083296;28;20074;-63
2023/01/04 09:21:59;;;;;;;12.05;7.53;;;;;;;22.13;44.46;100946.25;21078819;28;20040;-62
2023/01/04 09:32:03;;;;;;;9.00;7.60;;;;;;;22.10;44.11;100941.19;21081108;28;20070;-63
2023/01/04 09:42:33;;;;;;;9.55;7.40;;;;;;;22.08;44.27;100938.72;21066319;28;20052;-63
2023/01/04 09:52:46;;;;;;;8.15;7.18;;;;;;;22.09;44.19;100939.53;21078815;28;20048;-62
2023/01/04 10:02:56;;;;;;;9.57;7.47;;;;;;;22.09;44.24;100939.53;21064697;28;20036;-63
2023/01/04 10:13:35;;;;;;;8.45;7.05;;;;;;;22.08;44.22;100949.00;21078342;28;20047;-64
2023/01/04 10:23:50;;;;;;;9.30;7.57;;;;;;;22.07;44.03;100950.94;21071237;28;20387;-63
2023/01/04 10:33:57;;;;;;;8.30;7.35;;;;;;;22.08;44.33;100968.50;21077068;28;20039;-63
2023/01/04 10:44:38;;;;;;;7.68;6.88;;;;;;;22.02;44.23;100990.00;21062163;28;20040;-63
2023/01/04 10:55:27;;;;;;;7.75;6.95;;;;;;;21.99;44.19;100989.75;21054360;28;20040;-64
2023/01/04 11:05:32;;;;;;;8.55;6.68;;;;;;;22.06;43.80;101007.00;21066434;28;20043;-64
2023/01/04 11:15:36;;;;;;;8.25;7.25;;;;;;;22.04;43.91;101025.97;21092147;28;20036;-64
2023/01/04 11:25:46;;;;;;;8.23;7.32;;;;;;;22.03;44.05;101022.31;21077852;28;20048;-64
2023/01/04 11:35:53;;;;;;;7.68;6.88;;;;;;;22.02;44.13;101042.13;21090905;28;20036;-64
2023/01/04 11:45:58;;;;;;;6.95;6.25;;;;;;;22.01;43.77;101059.97;21075585;28;20449;-64
2023/01/04 11:56:21;;;;;;;7.47;6.35;;;;;;;21.94;43.87;101067.78;21089041;28;20036;-64
2023/01/04 12:06:36;;;;;;;7.75;6.32;;;;;;;21.98;43.73;101066.09;21069070;28;20035;-64
2023/01/04 12:16:48;;;;;;;6.93;6.30;;;;;;;21.96;44.06;101071.97;21086078;28;20390;-64
2023/01/04 12:26:51;;;;;;;6.85;6.15;;;;;;;21.98;43.88;101091.16;21066668;28;20036;-63
2023/01/04 12:36:56;;;;;;;7.57;6.68;;;;;;;21.78;44.00;101079.00;21085684;28;20101;-64
2023/01/04 12:57:17;;;;;;;7.45;6.65;;;;;;;21.93;43.78;101122.66;21083201;28;20043;-62
2023/01/04 13:07:44;;;;;;;7.85;6.95;;;;;;;21.89;43.80;101156.97;21069473;28;20376;-63
2023/01/04 13:17:47;;;;;;;7.22;6.10;;;;;;;21.94;43.99;101170.88;21077991;28;20548;-63
2023/01/04 13:28:02;;;;;;;7.13;6.15;;;;;;;21.91;43.57;101182.59;21079193;28;20487;-63
2023/01/04 13:38:12;;;;;;;7.15;6.10;;;;;;;21.93;43.76;101149.69;21075708;28;20109;-63
2023/01/04 13:48:18;;;;;;;7.18;5.97;;;;;;;21.93;43.45;101156.09;21079664;28;20040;-63
2023/01/04 13:58:25;;;;;;;6.50;5.80;;;;;;;21.83;43.64;101125.50;21054711;28;20052;-63
2023/01/04 14:08:49;;;;;;;7.78;5.97;;;;;;;21.88;43.61;101144.97;21069821;28;20032;-63
2023/01/04 14:18:52;;;;;;;5.75;5.25;;;;;;;21.92;43.62;101142.47;21025231;28;20088;-64
2023/01/04 14:28:53;;;;;;;8.73;5.97;;;;;;;21.91;43.93;101138.03;21055322;28;20036;-64
2023/01/04 14:39:06;;;;;;;6.20;5.60;;;;;;;21.93;44.99;101135.78;21075328;28;20052;-62
2023/01/04 14:49:09;;;;;;;23.73;7.85;;;;;;;21.94;44.16;101160.56;21075341;28;20044;-63
2023/01/04 14:59:10;;;;;;;10.82;6.20;;;;;;;21.96;45.22;101171.44;21073769;28;20048;-63
2023/01/04 15:09:14;;;;;;;11.05;6.50;;;;;;;21.99;45.49;101177.28;21074691;28;20379;-63
2023/01/04 15:19:18;;;;;;;11.27;6.07;;;;;;;21.93;45.71;101166.41;21075143;28;20184;-63
2023/01/04 15:29:20;;;;;;;12.45;5.85;;;;;;;22.02;45.82;101184.22;21075155;28;20040;-63
2023/01/04 15:39:21;;;;;;;8.65;5.82;;;;;;;21.99;45.79;101170.84;21074450;28;20101;-63
2023/01/04 15:49:22;;;;;;;8.20;6.30;;;;;;;22.00;45.93;101180.91;21077244;28;20040;-63
2023/01/04 15:59:24;;;;;;;11.07;5.85;;;;;;;21.96;45.70;101157.50;21088654;28;20397;-63
2023/01/04 16:09:26;;;;;;;9.95;5.82;;;;;;;21.99;45.62;101157.78;21088029;28;20101;-64
2023/01/04 16:19:31;;;;;;;7.95;5.97;;;;;;;;;;21087577;28;20040;-63
2023/01/04 16:29:32;;;;;;;9.82;6.53;;;;;;;22.02;45.79;101139.66;21086806;28;20040;-62
2023/01/04 16:39:36;;;;;;;7.90;5.95;;;;;;;21.97;45.54;101098.69;21085354;28;20491;-63
2023/01/04 16:49:40;;;;;;;7.95;5.50;;;;;;;22.00;45.95;101075.84;21085426;28;20040;-63
2023/01/04 16:59:42;;;;;;;9.15;5.65;;;;;;;21.99;45.70;101060.25;21083215;28;20040;-63
2023/01/04 17:09:43;;;;;;;8.27;5.63;;;;;;;22.00;45.85;101036.00;21083915;28;20032;-63
2023/01/04 17:19:44;;;;;;;9.02;5.70;;;;;;;21.99;45.87;101028.75;21082566;28;20048;-63
2023/01/04 17:29:46;;;;;;;6.90;5.38;;;;;;;21.94;45.89;101000.91;21081342;28;20129;-64
2023/01/04 17:39:47;;;;;;;6.75;5.57;;;;;;;21.98;45.35;101002.00;21080322;28;20036;-64
2023/01/04 17:49:48;;;;;;;8.07;5.47;;;;;;;21.97;45.42;100986.41;21080108;28;20036;-63
2023/01/04 17:59:53;;;;;;;6.63;5.55;;;;;;;21.96;45.90;100980.03;21079598;28;20044;-64
2023/01/04 18:09:54;;;;;;;6.90;5.72;;;;;;;21.97;45.36;100941.84;21079071;28;20557;-63
2023/01/04 18:19:57;;;;;;;7.05;4.88;;;;;;;21.98;45.80;100924.00;21064902;28;20495;-63
2023/01/04 18:29:58;;;;;;;6.13;5.20;;;;;;;21.97;45.33;100925.13;20993767;28;20040;-64
2023/01/04 18:40:01;;;;;;;6.32;5.15;;;;;;;21.96;45.41;100912.31;20992541;28;20036;-64
2023/01/04 18:50:02;;;;;;;5.78;4.63;;;;;;;21.78;45.31;100867.28;20992755;28;20044;-63
2023/01/04 19:00:06;;;;;;;6.22;4.90;;;;;;;21.97;45.64;100886.13;20991378;28;20300;-63
2023/01/04 19:10:08;;;;;;;5.68;4.93;;;;;;;21.95;45.34;100888.38;20990634;28;20036;-63
2023/01/04 19:20:09;;;;;;;27.85;5.80;;;;;;;21.96;45.39;100856.59;20989574;28;20480;-63
2023/01/04 19:30:11;;;;;;;70.28;9.82;;;;;;;21.86;45.45;100857.50;21002184;28;20036;-62
2023/01/04 19:40:13;;;;;;;160.15;16.02;;;;;;;21.94;45.94;100858.81;21004145;28;20086;-62
2023/01/04 19:50:14;;;;;;;122.78;14.02;;;;;;;21.76;45.55;100813.84;21003978;28;20463;-63
2023/01/04 20:00:16;;;;;;;157.73;16.83;;;;;;;21.96;45.62;100845.44;21003233;28;20102;-63
2023/01/04 20:10:17;;;;;;;124.20;15.30;;;;;;;21.95;45.82;100866.91;21002884;28;20045;-62
2023/01/04 20:20:20;;;;;;;130.23;15.18;;;;;;;21.94;45.69;100881.09;21001562;28;20097;-63
2023/01/04 20:30:24;;;;;;;111.10;14.57;;;;;;;21.96;45.57;100878.88;21001392;28;20553;-63
2023/01/04 20:40:27;;;;;;;124.70;17.65;;;;;;;21.95;45.72;100871.66;20999213;28;20101;-63
2023/01/04 20:50:30;;;;;;;150.13;19.00;;;;;;;21.96;45.81;100864.94;20999920;28;20446;-64
2023/01/04 21:00:32;;;;;;;193.63;22.25;;;;;;;21.96;45.75;100851.03;20998386;28;20051;-63
2023/01/04 21:10:34;;;;;;;180.25;22.88;;;;;;;21.95;45.65;100838.22;20998180;28;20070;-64
2023/01/04 21:20:45;;;;;;;146.48;19.00;;;;;;;21.95;45.63;100821.50;20997101;28;20052;-63
2023/01/04 21:30:47;;;;;;;147.25;18.92;;;;;;;21.96;46.15;100801.69;21032478;28;20035;-64
2023/01/04 21:40:49;;;;;;;126.32;19.80;;;;;;;22.00;46.84;100765.72;21090600;28;20109;-65
2023/01/04 21:50:50;;;;;;;113.00;19.73;;;;;;;22.03;46.98;100756.78;21071990;28;20036;-63
2023/01/04 22:00:51;;;;;;;77.93;15.98;;;;;;;22.05;46.97;100777.66;21076148;28;20066;-64
2023/01/04 22:10:56;;;;;;;94.32;16.38;;;;;;;22.08;47.73;100787.38;21076650;28;20441;-62
2023/01/04 22:21:08;;;;;;;105.28;19.55;;;;;;;22.09;47.86;100814.13;21055833;28;20399;-62
2023/01/04 22:31:11;;;;;;;122.90;21.13;;;;;;;21.97;48.80;100794.16;20998678;28;20407;-64
2023/01/04 22:41:15;;;;;;;115.88;21.05;;;;;;;22.09;48.82;100830.84;20990766;28;20036;-64
2023/01/04 22:51:22;;;;;;;88.82;16.63;;;;;;;22.17;49.58;100830.25;20991846;28;20040;-63
2023/01/04 23:01:30;;;;;;;108.53;20.40;;;;;;;22.18;49.20;100842.25;20997938;28;20044;-63
2023/01/04 23:11:33;;;;;;;101.50;19.17;;;;;;;22.20;49.63;100815.72;21007502;28;20396;-64
2023/01/04 23:21:35;;;;;;;101.47;18.95;;;;;;;19.88;49.28;100433.97;21006787;28;20036;-64
2023/01/04 23:31:36;;;;;;;120.28;20.13;;;;;;;22.23;49.16;100819.91;21027959;28;20133;-64
2023/01/04 23:41:46;;;;;;;109.43;19.95;;;;;;;22.24;49.55;100811.22;21088701;28;20040;-64
2023/01/04 23:51:48;;;;;;;108.68;18.55;;;;;;;22.26;49.03;100814.53;21050305;28;20434;-64
